createdAt,value
2023-04-09T00:01:37.606Z,1.36
2023-04-09T00:04:06.241Z,1.10
2023-04-09T00:06:35.901Z,1.30
2023-04-09T00:09:04.123Z,1.23
2023-04-09T00:11:32.285Z,1.32
2023-04-09T00:14:00.940Z,1.17
2023-04-09T00:16:29.260Z,1.11
2023-04-09T00:18:57.456Z,0.97
2023-04-09T00:21:27.193Z,1.09
2023-04-09T00:23:56.772Z,0.84
2023-04-09T00:26:24.983Z,1.03
2023-04-09T00:28:53.403Z,1.07
2023-04-09T00:31:21.894Z,1.12
2023-04-09T00:33:50.120Z,0.90
2023-04-09T00:36:18.604Z,0.94
2023-04-09T00:38:48.023Z,1.13
2023-04-09T00:41:18.417Z,1.09
2023-04-09T00:43:46.657Z,1.01
2023-04-09T00:46:16.187Z,0.66
2023-04-09T00:48:44.494Z,0.75
2023-04-09T00:51:12.691Z,0.79
2023-04-09T00:53:40.927Z,0.67
2023-04-09T00:56:09.174Z,0.81
2023-04-09T00:58:38.732Z,0.87
2023-04-09T01:01:06.892Z,0.88
2023-04-09T01:03:35.624Z,0.74
2023-04-09T01:06:08.783Z,0.67
2023-04-09T01:08:45.848Z,0.68
2023-04-09T01:11:21.959Z,0.44
2023-04-09T01:14:02.455Z,0.64
2023-04-09T01:16:35.179Z,0.67
2023-04-09T01:19:11.251Z,0.64
2023-04-09T01:21:42.142Z,0.50
2023-04-09T01:24:22.034Z,0.29
2023-04-09T01:26:59.550Z,0.40
2023-04-09T01:29:40.457Z,0.37
2023-04-09T01:32:09.855Z,0.49
2023-04-09T01:34:39.121Z,0.48
2023-04-09T01:37:08.152Z,0.29
2023-04-09T01:39:38.536Z,0.36
2023-04-09T01:42:11.050Z,0.23
2023-04-09T01:44:41.604Z,0.04
2023-04-09T01:47:11.076Z,0.34
2023-04-09T01:49:41.639Z,0.39
2023-04-09T01:52:10.829Z,0.36
2023-04-09T01:54:39.313Z,0.29
2023-04-09T01:57:07.816Z,0.39
2023-04-09T01:59:35.994Z,-0.02
2023-04-09T02:02:10.645Z,-0.05
2023-04-09T02:04:42.694Z,0.11
2023-04-09T02:07:15.503Z,0.09
2023-04-09T02:09:46.924Z,0.13
2023-04-09T02:12:18.793Z,0.12
2023-04-09T02:14:47.921Z,-0.06
2023-04-09T02:17:17.559Z,-0.22
2023-04-09T02:19:48.182Z,-0.10
2023-04-09T02:22:17.437Z,-0.58
2023-04-09T02:24:46.926Z,-0.43
2023-04-09T02:27:15.293Z,0.11
2023-04-09T02:29:44.075Z,0.25
2023-04-09T02:32:13.623Z,0.16
2023-04-09T02:34:43.438Z,-0.03
2023-04-09T02:37:11.605Z,-0.08
2023-04-09T02:39:39.834Z,-0.15
2023-04-09T02:42:08.310Z,-0.03
2023-04-09T02:44:36.664Z,0.24
2023-04-09T02:47:05.755Z,0.39
2023-04-09T02:49:34.354Z,0.46
2023-04-09T02:52:03.874Z,0.29
2023-04-09T02:54:32.116Z,0.16
2023-04-09T02:57:01.045Z,0.50
2023-04-09T02:59:29.338Z,0.72
2023-04-09T03:01:57.770Z,0.69
2023-04-09T03:04:26.358Z,0.32
2023-04-09T03:06:54.673Z,0.48
2023-04-09T03:09:24.204Z,0.55
2023-04-09T03:11:52.495Z,0.79
2023-04-09T03:14:20.705Z,0.76
2023-04-09T03:16:48.925Z,0.87
2023-04-09T03:19:17.324Z,0.98
2023-04-09T03:21:46.356Z,1.14
2023-04-09T03:24:14.797Z,1.16
2023-04-09T03:26:44.856Z,1.16
2023-04-09T03:29:15.666Z,1.13
2023-04-09T03:31:44.048Z,1.23
2023-04-09T03:34:12.690Z,1.35
2023-04-09T03:36:41.024Z,1.27
2023-04-09T03:39:18.502Z,1.19
2023-04-09T03:41:48.685Z,1.25
2023-04-09T03:44:18.936Z,1.06
2023-04-09T03:47:00.746Z,1.12
2023-04-09T03:49:30.116Z,0.96
2023-04-09T03:52:05.288Z,0.92
2023-04-09T03:54:38.690Z,1.35
2023-04-09T03:57:14.896Z,1.31
2023-04-09T03:59:45.301Z,1.16
2023-04-09T04:02:16.148Z,1.08
2023-04-09T04:04:48.754Z,1.33
2023-04-09T04:07:17.934Z,1.36
2023-04-09T04:09:50.247Z,1.22
2023-04-09T04:12:21.701Z,1.42
2023-04-09T04:15:02.060Z,1.43
2023-04-09T04:17:37.105Z,1.16
2023-04-09T04:20:11.099Z,1.40
2023-04-09T04:22:51.645Z,1.70
2023-04-09T04:25:20.034Z,1.79
2023-04-09T04:27:50.883Z,1.70
2023-04-09T04:30:22.645Z,1.87
2023-04-09T04:33:04.010Z,1.87
2023-04-09T04:35:39.981Z,2.00
2023-04-09T04:38:12.353Z,2.00
2023-04-09T04:40:41.466Z,1.92
2023-04-09T04:43:10.980Z,2.08
2023-04-09T04:45:39.240Z,2.02
2023-04-09T04:48:12.175Z,1.88
2023-04-09T04:50:40.433Z,2.08
2023-04-09T04:53:10.797Z,1.94
2023-04-09T04:55:50.580Z,2.26
2023-04-09T04:58:26.925Z,2.25
2023-04-09T05:01:00.380Z,2.28
2023-04-09T05:03:28.710Z,2.32
2023-04-09T05:06:06.314Z,2.29
2023-04-09T05:08:42.108Z,2.34
2023-04-09T05:11:12.823Z,2.28
2023-04-09T05:13:44.002Z,2.40
2023-04-09T05:16:17.848Z,2.32
2023-04-09T05:18:50.225Z,2.53
2023-04-09T05:21:18.608Z,2.65
2023-04-09T05:23:47.973Z,2.68
2023-04-09T05:26:16.789Z,2.76
2023-04-09T05:28:54.501Z,2.65
2023-04-09T05:31:24.542Z,2.62
2023-04-09T05:33:57.404Z,2.75
2023-04-09T05:36:34.990Z,2.86
2023-04-09T05:39:03.846Z,2.86
2023-04-09T05:41:33.597Z,2.83
2023-04-09T05:44:21.603Z,3.02
2023-04-09T05:46:51.524Z,3.18
2023-04-09T05:49:24.640Z,3.22
2023-04-09T05:51:54.838Z,3.43
2023-04-09T05:54:27.697Z,3.50
2023-04-09T05:56:55.846Z,3.61
2023-04-09T05:59:26.034Z,3.63
2023-04-09T06:01:55.264Z,3.59
2023-04-09T06:04:23.563Z,3.57
2023-04-09T06:06:51.862Z,3.85
2023-04-09T06:09:19.975Z,3.72
2023-04-09T06:11:48.068Z,3.78
2023-04-09T06:14:18.153Z,3.69
2023-04-09T06:16:47.686Z,3.71
2023-04-09T06:19:17.176Z,3.64
2023-04-09T06:21:45.409Z,3.55
2023-04-09T06:24:13.548Z,3.62
2023-04-09T06:26:41.656Z,3.63
2023-04-09T06:29:09.822Z,3.64
2023-04-09T06:31:38.218Z,3.80
2023-04-09T06:34:07.670Z,3.78
2023-04-09T06:36:37.630Z,3.96
2023-04-09T06:39:05.783Z,3.98
2023-04-09T06:41:34.325Z,4.15
2023-04-09T06:44:09.827Z,4.09
2023-04-09T06:46:38.026Z,4.07
2023-04-09T06:49:07.726Z,4.11
2023-04-09T06:51:35.867Z,4.13
2023-04-09T06:54:04.101Z,4.30
2023-04-09T06:56:32.297Z,3.82
2023-04-09T06:59:00.489Z,3.92
2023-04-09T07:01:28.644Z,3.98
2023-04-09T07:03:57.115Z,4.05
2023-04-09T07:06:26.902Z,4.12
2023-04-09T07:08:55.346Z,3.99
2023-04-09T07:11:24.117Z,4.09
2023-04-09T07:13:52.459Z,4.45
2023-04-09T07:16:21.086Z,4.61
2023-04-09T07:18:49.387Z,4.36
2023-04-09T07:21:17.999Z,4.42
2023-04-09T07:23:47.922Z,4.43
2023-04-09T07:26:16.112Z,4.67
2023-04-09T07:28:44.317Z,4.28
2023-04-09T07:31:13.034Z,4.63
2023-04-09T07:33:41.241Z,4.44
2023-04-09T07:36:09.409Z,4.80
2023-04-09T07:38:37.588Z,4.98
2023-04-09T07:41:07.091Z,5.12
2023-04-09T07:43:35.421Z,5.33
2023-04-09T07:46:03.598Z,4.86
2023-04-09T07:48:31.805Z,4.94
2023-04-09T07:51:00.387Z,4.96
2023-04-09T07:53:28.693Z,5.12
2023-04-09T07:55:57.840Z,5.29
2023-04-09T07:58:27.423Z,5.16
2023-04-09T08:00:55.682Z,5.36
2023-04-09T08:03:24.041Z,5.31
2023-04-09T08:05:52.379Z,5.47
2023-04-09T08:08:21.791Z,5.59
2023-04-09T08:10:50.708Z,5.58
2023-04-09T08:13:18.849Z,5.74
2023-04-09T08:15:48.305Z,5.55
2023-04-09T08:18:16.617Z,5.59
2023-04-09T08:20:45.802Z,5.85
2023-04-09T08:23:14.409Z,5.96
2023-04-09T08:25:42.705Z,6.22
2023-04-09T08:28:10.912Z,6.39
2023-04-09T08:30:39.434Z,5.83
2023-04-09T08:33:08.944Z,5.93
2023-04-09T08:35:38.285Z,6.07
2023-04-09T08:38:06.434Z,5.93
2023-04-09T08:40:35.747Z,6.29
2023-04-09T08:43:07.215Z,6.01
2023-04-09T08:45:35.876Z,6.15
2023-04-09T08:48:04.703Z,6.29
2023-04-09T08:50:34.941Z,6.37
2023-04-09T08:53:05.808Z,6.52
2023-04-09T08:55:35.531Z,6.56
2023-04-09T08:58:07.251Z,6.33
2023-04-09T09:00:35.415Z,5.91
2023-04-09T09:03:05.647Z,5.88
2023-04-09T09:05:40.059Z,5.80
2023-04-09T09:08:09.850Z,6.15
2023-04-09T09:10:39.572Z,6.63
2023-04-09T09:13:21.338Z,6.44
2023-04-09T09:15:54.063Z,6.58
2023-04-09T09:18:22.538Z,6.37
2023-04-09T09:20:52.071Z,6.32
2023-04-09T09:23:36.636Z,6.46
2023-04-09T09:26:13.134Z,6.47
2023-04-09T09:28:42.167Z,6.90
2023-04-09T09:31:11.085Z,6.99
2023-04-09T09:33:39.667Z,7.15
2023-04-09T09:36:10.292Z,6.86
2023-04-09T09:38:53.473Z,7.25
2023-04-09T09:41:22.534Z,7.64
2023-04-09T09:43:51.186Z,7.50
2023-04-09T09:46:19.378Z,7.53
2023-04-09T09:48:47.665Z,6.76
2023-04-09T09:51:17.796Z,7.36
2023-04-09T09:53:48.371Z,7.35
2023-04-09T09:56:25.415Z,7.29
2023-04-09T09:59:03.766Z,8.01
2023-04-09T10:01:32.137Z,7.75
2023-04-09T10:04:01.513Z,8.03
2023-04-09T10:06:31.762Z,7.77
2023-04-09T10:09:04.783Z,8.52
2023-04-09T10:11:34.545Z,7.99
2023-04-09T10:14:03.751Z,8.33
2023-04-09T10:16:32.373Z,8.08
2023-04-09T10:19:01.837Z,8.14
2023-04-09T10:21:42.635Z,8.19
2023-04-09T10:24:11.888Z,8.61
2023-04-09T10:26:42.048Z,8.53
2023-04-09T10:29:14.530Z,8.66
2023-04-09T10:31:52.981Z,8.74
2023-04-09T10:34:23.374Z,8.91
2023-04-09T10:36:56.631Z,8.94
2023-04-09T10:39:27.957Z,9.00
2023-04-09T10:41:57.381Z,9.43
2023-04-09T10:44:27.406Z,8.91
2023-04-09T10:46:56.152Z,9.72
2023-04-09T10:49:25.528Z,9.86
2023-04-09T10:52:02.706Z,9.72
2023-04-09T10:54:47.020Z,9.47
2023-04-09T10:57:17.940Z,10.44
2023-04-09T10:59:47.752Z,10.00
2023-04-09T11:02:45.613Z,10.23
2023-04-09T11:05:22.744Z,9.91
2023-04-09T11:07:58.274Z,8.98
2023-04-09T11:10:26.800Z,9.96
2023-04-09T11:12:55.116Z,10.18
2023-04-09T11:15:23.498Z,10.00
2023-04-09T11:17:51.794Z,9.40
2023-04-09T11:20:22.777Z,9.13
2023-04-09T11:22:53.833Z,9.29
2023-04-09T11:25:23.892Z,9.62
2023-04-09T11:27:52.231Z,9.53
2023-04-09T11:30:21.403Z,9.71
2023-04-09T11:32:50.494Z,9.58
2023-04-09T11:35:20.557Z,9.56
2023-04-09T11:37:50.320Z,9.54
2023-04-09T11:40:21.990Z,9.47
2023-04-09T11:42:51.336Z,8.94
2023-04-09T11:45:21.172Z,9.22
2023-04-09T11:47:49.951Z,9.60
2023-04-09T11:50:19.020Z,9.83
2023-04-09T11:52:47.843Z,9.49
2023-04-09T11:55:26.237Z,9.61
2023-04-09T11:58:00.904Z,9.44
2023-04-09T12:00:29.987Z,9.57
2023-04-09T12:03:03.632Z,9.34
2023-04-09T12:05:34.369Z,10.21
2023-04-09T12:08:04.980Z,9.59
2023-04-09T12:10:36.615Z,9.48
2023-04-09T12:13:07.303Z,9.38
2023-04-09T12:15:39.031Z,10.08
2023-04-09T12:18:10.055Z,10.24
2023-04-09T12:20:40.707Z,9.85
2023-04-09T12:23:10.626Z,10.21
2023-04-09T12:25:42.193Z,10.04
2023-04-09T12:28:13.659Z,10.01
2023-04-09T12:30:42.096Z,10.16
2023-04-09T12:33:11.310Z,10.28
2023-04-09T12:35:40.134Z,10.39
2023-04-09T12:38:08.461Z,10.25
2023-04-09T12:40:37.234Z,10.10
2023-04-09T12:43:06.815Z,9.98
2023-04-09T12:45:35.182Z,10.09
2023-04-09T12:48:03.401Z,10.81
2023-04-09T12:50:31.576Z,10.51
2023-04-09T12:52:59.714Z,11.00
2023-04-09T12:55:27.985Z,10.85
2023-04-09T12:57:56.135Z,10.75
2023-04-09T13:00:25.732Z,11.18
2023-04-09T13:02:55.703Z,11.10
2023-04-09T13:05:24.244Z,11.02
2023-04-09T13:07:52.572Z,11.13
2023-04-09T13:10:20.835Z,11.09
2023-04-09T13:12:48.969Z,10.80
2023-04-09T13:15:17.495Z,10.88
2023-04-09T13:17:47.010Z,10.94
2023-04-09T13:20:15.539Z,11.11
2023-04-09T13:22:46.994Z,11.10
2023-04-09T13:25:15.456Z,11.25
2023-04-09T13:27:44.042Z,11.32
2023-04-09T13:30:12.769Z,11.33
2023-04-09T13:32:41.276Z,11.32
2023-04-09T13:35:11.485Z,11.30
2023-04-09T13:37:39.641Z,11.52
2023-04-09T13:40:09.395Z,11.56
2023-04-09T13:42:37.803Z,11.18
2023-04-09T13:45:07.130Z,11.21
2023-04-09T13:47:35.689Z,11.33
2023-04-09T13:50:04.356Z,11.13
2023-04-09T13:52:34.050Z,11.14
2023-04-09T13:55:03.643Z,11.24
2023-04-09T13:57:31.789Z,11.39
2023-04-09T14:00:02.036Z,11.19
2023-04-09T14:02:33.485Z,11.56
2023-04-09T14:05:02.588Z,11.70
2023-04-09T14:07:30.840Z,11.50
2023-04-09T14:10:00.371Z,11.52
2023-04-09T14:12:28.552Z,11.59
2023-04-09T14:14:56.697Z,11.66
2023-04-09T14:17:25.106Z,11.54
2023-04-09T14:19:53.254Z,11.25
2023-04-09T14:22:21.504Z,11.35
2023-04-09T14:24:49.624Z,11.18
2023-04-09T14:27:19.134Z,11.29
2023-04-09T14:29:47.439Z,11.66
2023-04-09T14:32:15.717Z,11.82
2023-04-09T14:34:43.881Z,11.79
2023-04-09T14:37:12.341Z,12.21
2023-04-09T14:39:40.510Z,11.86
2023-04-09T14:42:08.624Z,12.06
2023-04-09T14:44:38.956Z,11.96
2023-04-09T14:47:07.204Z,11.86
2023-04-09T14:49:35.361Z,11.69
2023-04-09T14:52:03.566Z,12.06
2023-04-09T14:54:33.154Z,12.31
2023-04-09T14:57:02.665Z,12.11
2023-04-09T14:59:30.833Z,12.35
2023-04-09T15:02:00.619Z,12.14
2023-04-09T15:04:28.937Z,11.88
2023-04-09T15:06:57.123Z,11.45
2023-04-09T15:09:25.415Z,11.61
2023-04-09T15:11:54.326Z,11.77
2023-04-09T15:14:23.805Z,12.15
2023-04-09T15:16:55.785Z,12.02
2023-04-09T15:19:25.309Z,12.07
2023-04-09T15:21:53.473Z,12.21
2023-04-09T15:24:21.609Z,12.31
2023-04-09T15:26:49.823Z,12.38
2023-04-09T15:29:17.995Z,12.28
2023-04-09T15:31:46.638Z,12.43
2023-04-09T15:34:14.868Z,11.94
2023-04-09T15:36:45.825Z,12.15
2023-04-09T15:39:13.988Z,12.61
2023-04-09T15:41:42.145Z,13.24
2023-04-09T15:44:11.568Z,13.08
2023-04-09T15:46:39.704Z,12.97
2023-04-09T15:49:07.870Z,13.34
2023-04-09T15:51:36.032Z,13.56
2023-04-09T15:54:05.554Z,13.86
2023-04-09T15:56:35.958Z,13.27
2023-04-09T15:59:05.383Z,12.87
2023-04-09T16:01:33.632Z,12.30
2023-04-09T16:04:02.125Z,13.10
2023-04-09T16:06:30.573Z,12.80
2023-04-09T16:08:58.749Z,12.23
2023-04-09T16:11:28.285Z,12.53
2023-04-09T16:13:57.180Z,12.15
2023-04-09T16:16:25.496Z,11.98
2023-04-09T16:18:53.900Z,11.82
2023-04-09T16:21:23.822Z,12.42
2023-04-09T16:23:52.230Z,12.49
2023-04-09T16:26:20.691Z,11.56
2023-04-09T16:28:51.010Z,11.59
2023-04-09T16:31:19.384Z,11.84
2023-04-09T16:33:47.894Z,11.59
2023-04-09T16:36:16.187Z,11.56
2023-04-09T16:38:44.345Z,11.06
2023-04-09T16:41:12.587Z,11.27
2023-04-09T16:43:40.778Z,11.10
2023-04-09T16:46:10.830Z,11.14
2023-04-09T16:48:41.708Z,10.66
2023-04-09T16:51:10.346Z,11.01
2023-04-09T16:53:38.976Z,11.09
2023-04-09T16:56:08.089Z,10.80
2023-04-09T16:58:36.361Z,10.83
2023-04-09T17:01:04.852Z,10.87
2023-04-09T17:03:34.516Z,10.76
2023-04-09T17:06:04.416Z,10.36
2023-04-09T17:08:33.014Z,10.21
2023-04-09T17:11:03.105Z,10.09
2023-04-09T17:13:34.273Z,9.93
2023-04-09T17:16:03.480Z,10.01
2023-04-09T17:18:31.608Z,9.92
2023-04-09T17:21:01.175Z,9.76
2023-04-09T17:23:29.317Z,9.78
2023-04-09T17:25:58.231Z,9.66
2023-04-09T17:28:26.423Z,9.63
2023-04-09T17:30:54.616Z,9.46
2023-04-09T17:33:23.081Z,9.35
2023-04-09T17:35:51.511Z,9.29
2023-04-09T17:38:21.630Z,9.31
2023-04-09T17:40:49.878Z,9.05
2023-04-09T17:43:18.298Z,9.04
2023-04-09T17:45:46.427Z,8.97
2023-04-09T17:48:14.742Z,8.88
2023-04-09T17:50:42.868Z,8.96
2023-04-09T17:53:11.571Z,8.88
2023-04-09T17:55:47.100Z,8.64
2023-04-09T17:58:15.405Z,8.60
2023-04-09T18:00:44.322Z,8.65
2023-04-09T18:03:13.224Z,8.60
2023-04-09T18:05:41.891Z,8.62
2023-04-09T18:08:10.067Z,8.52
2023-04-09T18:10:38.543Z,8.36
2023-04-09T18:13:08.005Z,8.39
2023-04-09T18:15:36.232Z,8.26
2023-04-09T18:18:04.473Z,8.23
2023-04-09T18:20:32.703Z,8.26
2023-04-09T18:23:00.807Z,8.25
2023-04-09T18:25:29.289Z,8.20
2023-04-09T18:27:57.803Z,8.05
2023-04-09T18:30:27.439Z,8.03
2023-04-09T18:32:55.681Z,7.93
2023-04-09T18:35:23.976Z,7.83
2023-04-09T18:37:52.357Z,7.80
2023-04-09T18:40:20.736Z,7.64
2023-04-09T18:42:51.745Z,7.69
2023-04-09T18:45:20.402Z,7.59
2023-04-09T18:47:49.972Z,7.34
2023-04-09T18:50:18.797Z,7.26
2023-04-09T18:52:47.282Z,7.25
2023-04-09T18:55:16.318Z,7.18
2023-04-09T18:57:44.930Z,7.33
2023-04-09T19:00:13.960Z,7.13
2023-04-09T19:02:42.888Z,7.12
2023-04-09T19:05:12.775Z,7.04
2023-04-09T19:07:41.077Z,7.03
2023-04-09T19:10:10.132Z,6.83
2023-04-09T19:12:38.743Z,6.94
2023-04-09T19:15:07.704Z,6.75
2023-04-09T19:17:35.948Z,6.71
2023-04-09T19:20:04.408Z,6.60
2023-04-09T19:22:33.883Z,6.42
2023-04-09T19:25:02.069Z,6.37
2023-04-09T19:27:30.244Z,6.36
2023-04-09T19:29:59.850Z,6.44
2023-04-09T19:32:28.109Z,6.49
2023-04-09T19:34:56.323Z,6.45
2023-04-09T19:37:27.487Z,6.21
2023-04-09T19:39:59.231Z,5.94
2023-04-09T19:42:28.654Z,5.57
2023-04-09T19:44:56.823Z,5.45
2023-04-09T19:47:25.038Z,5.88
2023-04-09T19:49:53.226Z,6.04
2023-04-09T19:52:21.608Z,6.05
2023-04-09T19:54:54.692Z,5.96
2023-04-09T19:57:26.385Z,5.89
2023-04-09T19:59:55.205Z,5.96
2023-04-09T20:02:23.855Z,5.83
2023-04-09T20:04:52.395Z,5.84
2023-04-09T20:07:20.572Z,5.73
2023-04-09T20:09:49.617Z,5.57
2023-04-09T20:12:17.795Z,5.58
2023-04-09T20:14:47.374Z,5.69
2023-04-09T20:17:17.126Z,5.61
2023-04-09T20:19:45.283Z,5.57
2023-04-09T20:22:13.442Z,5.34
2023-04-09T20:24:41.603Z,5.49
2023-04-09T20:27:10.070Z,5.49
2023-04-09T20:29:38.365Z,5.46
2023-04-09T20:32:07.945Z,5.38
2023-04-09T20:34:36.238Z,5.20
2023-04-09T20:37:05.601Z,5.15
2023-04-09T20:39:33.768Z,5.22
2023-04-09T20:42:02.057Z,5.24
2023-04-09T20:44:30.396Z,5.19
2023-04-09T20:46:58.529Z,5.08
2023-04-09T20:49:28.439Z,4.95
2023-04-09T20:51:56.830Z,4.86
2023-04-09T20:54:24.993Z,4.95
2023-04-09T20:56:53.120Z,5.00
2023-04-09T20:59:21.683Z,4.80
2023-04-09T21:01:50.146Z,4.74
2023-04-09T21:04:18.687Z,4.74
2023-04-09T21:06:48.710Z,4.34
2023-04-09T21:09:16.869Z,4.74
2023-04-09T21:11:45.304Z,4.77
2023-04-09T21:14:14.637Z,4.80
2023-04-09T21:16:42.823Z,4.51
2023-04-09T21:19:11.147Z,4.58
2023-04-09T21:21:39.383Z,4.55
2023-04-09T21:24:08.925Z,4.53
2023-04-09T21:26:50.288Z,4.60
2023-04-09T21:29:20.613Z,4.50
2023-04-09T21:31:49.253Z,4.50
2023-04-09T21:34:17.720Z,4.48
2023-04-09T21:36:46.234Z,4.49
2023-04-09T21:39:15.778Z,4.42
2023-04-09T21:41:43.957Z,4.35
2023-04-09T21:44:12.268Z,4.24
2023-04-09T21:46:41.722Z,4.06
2023-04-09T21:49:10.305Z,4.30
2023-04-09T21:51:39.805Z,3.84
2023-04-09T21:54:09.421Z,4.09
2023-04-09T21:56:39.304Z,4.17
2023-04-09T21:59:07.511Z,4.25
2023-04-09T22:01:35.694Z,3.91
2023-04-09T22:04:04.442Z,4.02
2023-04-09T22:06:32.930Z,4.14
2023-04-09T22:09:01.852Z,4.12
2023-04-09T22:11:30.511Z,4.19
2023-04-09T22:14:00.004Z,4.05
2023-04-09T22:16:28.768Z,4.13
2023-04-09T22:18:58.571Z,4.11
2023-04-09T22:21:27.697Z,4.09
2023-04-09T22:23:55.960Z,4.09
2023-04-09T22:26:24.349Z,4.01
2023-04-09T22:28:52.846Z,4.07
2023-04-09T22:31:22.895Z,3.85
2023-04-09T22:33:51.160Z,3.69
2023-04-09T22:36:19.417Z,3.75
2023-04-09T22:38:47.613Z,3.33
2023-04-09T22:41:17.528Z,3.63
2023-04-09T22:43:45.761Z,3.78
2023-04-09T22:46:14.162Z,3.85
2023-04-09T22:48:44.866Z,3.82
2023-04-09T22:51:23.787Z,3.78
2023-04-09T22:53:51.915Z,3.67
2023-04-09T22:56:21.517Z,3.66
2023-04-09T22:58:49.660Z,3.68
2023-04-09T23:01:21.999Z,3.63
2023-04-09T23:03:51.824Z,3.61
2023-04-09T23:06:20.037Z,3.74
2023-04-09T23:08:48.293Z,3.75
2023-04-09T23:11:16.428Z,3.54
2023-04-09T23:13:44.542Z,3.42
2023-04-09T23:16:12.901Z,3.43
2023-04-09T23:18:41.747Z,3.37
2023-04-09T23:21:12.071Z,3.38
2023-04-09T23:23:40.472Z,3.43
2023-04-09T23:26:08.652Z,3.25
2023-04-09T23:28:36.815Z,3.50
2023-04-09T23:31:05.349Z,3.51
2023-04-09T23:33:34.432Z,3.39
2023-04-09T23:36:02.687Z,3.42
2023-04-09T23:38:32.268Z,3.55
2023-04-09T23:41:00.431Z,3.34
2023-04-09T23:43:28.780Z,3.36
2023-04-09T23:45:56.925Z,3.42
2023-04-09T23:48:25.349Z,3.43
2023-04-09T23:50:53.776Z,3.32
2023-04-09T23:53:21.922Z,3.26
2023-04-09T23:55:52.753Z,3.27
2023-04-09T23:58:21.376Z,3.12
